Main page
METAR-TAF:

METAR-TAF

Airports :

Tunis, Tunisia

Tunis–Carthage International Airport

latitude: 36-50N, longitude: 010-14E, elevation: 3 m

Current weather observation

The report was made 41 minutes ago, at 07:30 UTC
Wind 3 kt from the South/Southeast
Temperature 9°C
Humidity 100%
Pressure 1019 hPa
Visibility 10 km or more
Few clouds at a height of 2300 ft

METAR: DTTA 040730Z 15003KT 9999 FEW023 09/09 Q1019 NOSIG

Time: 09:11 (08:11 UTC)

Forecast

The report was made 2 hours and 47 minutes ago, at 05:24 UTC
Forecast valid from 04 at 06 UTC to 05 at 06 UTC
Wind 4 kt from the South/Southwest
Visibility 10 km or more
Few clouds at a height of 2600 ft
Becoming
from 04 at 18 UTC to 04 at 20 UTC
Wind 14 kt from the South/Southeast
Scattered clouds at a height of 3600 ft
Temporary
from 05 at 02 UTC to 05 at 06 UTC
Visibility: 3000 m
Few clouds at a height of 3000 ft, Cumulonimbus.
thunderstorm, light rain

TAF: DTTA 040524Z 0406/0506 20004KT 9999 FEW026 BECMG 0418/0420 16014KT SCT036 TEMPO 0502/0506 3000 -TSRA FEW030CB

Weather observations and forecasts of more than 4000 airports (METAR and TAF reports).

The available stations are represented by yellow and red dots on the map.

Hover mouse over dot to see the name of the station.

Then click to see weather observations and forecasts.

To change the map : click on the green buttons with a black cross to zoom in, on the green button with a dash to zoom out, or on the green arrows for adjacent maps.


METAR-TAF: